Time;durP1;ratioP1;P1;durP2;ratioP2;P2;SDS_P1;SDS_P2;PMS_P1;PMS_P2;Temp;Humidity;BMP_temperature;BMP_pressure;BME280_temperature;BME280_humidity;BME280_pressure;Samples;Min_cycle;Max_cycle;Signal;HPM_P1;HPM_P2
2021/12/01 00:00:23;;;;;;;14.98;7.28;;;;;;;3.30;68.94;98529.87;1874021;76;22137;-66
2021/12/01 00:02:55;;;;;;;14.93;7.58;;;;;;;3.29;68.89;98513.80;1874038;76;22137;-66
2021/12/01 00:05:46;;;;;;;15.50;7.70;;;;;;;3.29;68.79;98512.95;1874018;76;22137;-67
2021/12/01 00:08:19;;;;;;;21.05;8.95;;;;;;;3.25;68.79;98515.06;1892718;76;22136;-67
2021/12/01 00:10:51;;;;;;;15.30;7.22;;;;;;;3.23;68.96;98518.78;1892700;76;22572;-65
2021/12/01 00:13:42;;;;;;;15.85;7.92;;;;;;;3.22;69.00;98520.59;1874000;76;22128;-65
2021/12/01 00:16:15;;;;;;;14.20;7.55;;;;;;;3.26;69.22;98509.32;1874038;76;22129;-65
2021/12/01 00:18:47;;;;;;;17.45;7.60;;;;;;;3.28;69.18;98500.31;1892825;76;22553;-65
2021/12/01 00:21:19;;;;;;;16.57;8.20;;;;;;;3.28;69.15;98497.69;1873922;76;22557;-64
2021/12/01 00:24:11;;;;;;;18.30;8.18;;;;;;;3.27;69.17;98493.91;1873964;76;22173;-67
2021/12/01 00:26:43;;;;;;;15.18;6.97;;;;;;;3.26;69.21;98497.02;1874037;76;22113;-64
2021/12/01 00:29:15;;;;;;;24.50;8.28;;;;;;;3.28;69.12;98501.63;1874030;76;22602;-65
2021/12/01 00:31:47;;;;;;;17.98;7.85;;;;;;;3.31;69.23;98511.02;1874019;76;22136;-65
2021/12/01 00:34:19;;;;;;;18.12;8.33;;;;;;;3.34;69.09;98512.05;1873930;76;22589;-65
2021/12/01 00:36:52;;;;;;;18.42;9.15;;;;;;;3.40;68.89;98510.62;1873922;76;22137;-67
2021/12/01 00:39:24;;;;;;;16.80;7.95;;;;;;;3.44;68.63;98511.99;1874029;76;22162;-65
2021/12/01 00:42:18;;;;;;;18.10;8.00;;;;;;;3.45;68.45;98502.65;1890306;76;22136;-67
2021/12/01 00:44:59;;;;;;;16.00;7.83;;;;;;;3.46;68.44;98498.22;1892821;76;22132;-67
2021/12/01 00:47:50;;;;;;;16.85;7.50;;;;;;;3.45;68.44;98505.27;1874113;76;22128;-67
2021/12/01 00:50:28;;;;;;;18.75;8.35;;;;;;;3.38;68.45;98501.57;1874129;76;22154;-67
2021/12/01 00:53:04;;;;;;;15.58;7.08;;;;;;;3.35;68.61;98507.63;1892827;76;22124;-65
2021/12/01 00:55:55;;;;;;;16.70;7.20;;;;;;;3.27;68.79;98512.28;1873974;76;22157;-67
2021/12/01 00:58:28;;;;;;;16.95;7.75;;;;;;;3.22;68.95;98517.14;1892715;76;22573;-68
2021/12/01 01:01:01;;;;;;;18.67;9.15;;;;;;;3.17;68.94;98511.50;1874035;76;22610;-64
2021/12/01 01:03:34;;;;;;;18.23;8.23;;;;;;;3.16;69.04;98510.69;1874046;76;22132;-65
2021/12/01 01:06:07;;;;;;;18.07;8.03;;;;;;;3.11;69.04;98510.30;1892729;76;22128;-66
2021/12/01 01:08:39;;;;;;;16.25;7.33;;;;;;;3.11;69.18;98509.47;1892829;76;22607;-67
2021/12/01 01:16:22;;;;;;;18.95;7.85;;;;;;;3.17;69.37;98507.08;1874039;76;22128;-68
2021/12/01 01:16:35;;;;;;;17.55;8.10;;;;;;;3.25;69.29;98496.69;1873888;76;22120;-65
2021/12/01 01:19:27;;;;;;;17.67;8.25;;;;;;;3.28;69.25;98505.56;1874005;76;22144;-66
2021/12/01 01:22:00;;;;;;;16.27;7.70;;;;;;;3.33;68.98;98505.13;1892723;76;22177;-67
2021/12/01 01:24:53;;;;;;;16.40;7.70;;;;;;;3.37;68.89;98501.23;1873953;76;22565;-67
2021/12/01 01:27:25;;;;;;;18.50;8.75;;;;;;;3.38;68.86;98502.88;1874045;76;22124;-66
2021/12/01 01:30:16;;;;;;;17.45;8.33;;;;;;;3.33;68.52;98501.19;1874006;76;22140;-67
2021/12/01 01:32:49;;;;;;;19.95;8.40;;;;;;;3.26;68.54;98509.32;1892826;76;22139;-66
2021/12/01 01:35:22;;;;;;;17.25;7.75;;;;;;;3.18;68.67;98515.28;1873969;76;22120;-65
2021/12/01 01:37:54;;;;;;;17.52;8.18;;;;;;;3.11;68.82;98519.48;1892828;76;22136;-65
2021/12/01 01:40:26;;;;;;;15.75;7.45;;;;;;;3.03;68.90;98518.05;1874031;76;22124;-65
2021/12/01 01:42:58;;;;;;;14.98;7.15;;;;;;;2.94;68.89;98516.30;1892717;76;22569;-68
2021/12/01 01:45:32;;;;;;;14.68;6.83;;;;;;;2.86;69.18;98528.80;1873888;76;22157;-64
2021/12/01 01:48:31;;;;;;;13.83;6.40;;;;;;;2.81;69.40;98525.30;1873989;76;22137;-65
2021/12/01 01:51:05;;;;;;;16.17;7.17;;;;;;;2.80;69.64;98530.20;1892800;76;22160;-68
2021/12/01 01:53:57;;;;;;;16.93;7.90;;;;;;;2.79;69.79;98530.36;1874031;76;22141;-65
2021/12/01 01:56:35;;;;;;;14.87;6.97;;;;;;;2.76;69.86;98535.39;1873200;76;22124;-65
2021/12/01 01:59:28;;;;;;;15.05;7.17;;;;;;;2.74;69.94;98544.38;1874064;76;22116;-65
2021/12/01 02:02:19;;;;;;;15.15;7.33;;;;;;;2.73;70.08;98551.88;1871297;76;22129;-65
2021/12/01 02:04:51;;;;;;;15.93;7.72;;;;;;;2.71;70.15;98553.83;1874124;76;22170;-65
2021/12/01 02:07:43;;;;;;;16.32;7.33;;;;;;;2.66;70.26;98546.88;1873972;76;22128;-67
2021/12/01 02:10:16;;;;;;;14.85;6.53;;;;;;;2.63;70.37;98547.15;1874039;76;22124;-64
2021/12/01 02:13:08;;;;;;;16.60;6.92;;;;;;;2.62;70.46;98554.19;1865262;75;22206;-65
2021/12/01 02:15:55;;;;;;;14.35;6.62;;;;;;;2.61;70.63;98552.55;1873896;76;22146;-67
2021/12/01 02:18:46;;;;;;;17.95;7.25;;;;;;;2.61;70.75;98556.97;1871261;76;22577;-65
2021/12/01 02:21:30;;;;;;;16.10;6.95;;;;;;;2.60;70.82;98556.14;1874024;76;22145;-64
2021/12/01 02:24:23;;;;;;;16.10;7.45;;;;;;;2.58;70.87;98555.92;1892817;76;22140;-67
2021/12/01 02:27:15;;;;;;;14.95;7.37;;;;;;;2.55;70.91;98561.80;1874109;76;22137;-65
2021/12/01 02:29:47;;;;;;;15.43;7.10;;;;;;;2.52;71.05;98560.77;1873961;76;22162;-65
2021/12/01 02:32:21;;;;;;;15.55;7.20;;;;;;;2.49;71.16;98563.69;1892827;76;22123;-67
2021/12/01 02:35:13;;;;;;;18.02;7.72;;;;;;;2.47;71.23;98559.05;1892787;76;22132;-66
2021/12/01 02:37:45;;;;;;;15.18;6.75;;;;;;;2.47;71.31;98558.22;1874043;76;22129;-65
2021/12/01 02:40:17;;;;;;;15.38;7.42;;;;;;;2.47;71.39;98560.84;1892720;76;22128;-67
2021/12/01 02:42:51;;;;;;;16.12;7.10;;;;;;;2.47;71.40;98562.16;1874013;76;22554;-67
2021/12/01 02:45:43;;;;;;;16.32;7.28;;;;;;;2.48;71.49;98567.25;1874005;76;22129;-68
2021/12/01 02:48:15;;;;;;;16.05;7.25;;;;;;;2.47;71.50;98566.91;1874031;76;22129;-68
2021/12/01 02:50:48;;;;;;;14.80;6.25;;;;;;;2.49;71.55;98568.92;1874030;76;22129;-65
2021/12/01 02:53:21;;;;;;;15.18;6.65;;;;;;;2.54;71.58;98570.64;1873998;76;22129;-67
2021/12/01 02:56:02;;;;;;;16.00;7.25;;;;;;;2.58;71.68;98571.66;1890319;76;22189;-65
2021/12/01 02:58:53;;;;;;;15.25;6.75;;;;;;;2.59;71.53;98568.05;1874005;76;22128;-65
2021/12/01 03:01:25;;;;;;;16.75;7.20;;;;;;;2.58;71.47;98572.96;1874025;76;22124;-67
2021/12/01 03:04:17;;;;;;;15.83;7.55;;;;;;;2.58;71.53;98575.58;1873993;76;22129;-67
2021/12/01 03:06:50;;;;;;;18.10;7.72;;;;;;;2.58;71.54;98582.96;1874036;76;22558;-67
2021/12/01 03:09:42;;;;;;;16.48;7.67;;;;;;;2.55;71.62;98584.58;1892797;76;22127;-65
2021/12/01 03:12:14;;;;;;;18.07;7.10;;;;;;;2.51;71.65;98586.64;1873912;76;22125;-65
2021/12/01 03:14:48;;;;;;;15.98;6.50;;;;;;;2.49;71.74;98594.28;1874020;76;22569;-66
2021/12/01 03:17:28;;;;;;;15.48;6.50;;;;;;;2.46;71.83;98597.20;1892834;76;22553;-67
2021/12/01 03:20:01;;;;;;;14.07;6.70;;;;;;;2.44;71.89;98598.63;1892796;76;22151;-66
2021/12/01 03:22:53;;;;;;;14.43;6.83;;;;;;;2.45;72.08;98602.11;1874108;76;22124;-65
2021/12/01 03:25:27;;;;;;;16.65;7.08;;;;;;;2.45;72.13;98604.23;1873993;76;22120;-65
2021/12/01 03:27:59;;;;;;;14.43;6.42;;;;;;;2.48;72.23;98610.98;1874035;76;22566;-68
2021/12/01 03:30:51;;;;;;;14.28;7.28;;;;;;;2.50;72.19;98620.38;1873998;76;22537;-67
2021/12/01 03:33:24;;;;;;;16.20;7.50;;;;;;;2.50;72.22;98621.69;1873978;76;22146;-67
2021/12/01 03:35:56;;;;;;;15.43;7.10;;;;;;;2.50;72.19;98616.44;1892825;76;22165;-67
2021/12/01 03:38:28;;;;;;;16.57;7.20;;;;;;;2.49;72.12;98625.28;1874031;76;22149;-67
2021/12/01 03:41:00;;;;;;;14.87;7.03;;;;;;;2.47;72.23;98633.75;1874040;76;22574;-65
2021/12/01 03:43:32;;;;;;;12.78;6.25;;;;;;;2.46;72.51;98622.92;1892744;76;22137;-67
2021/12/01 03:46:05;;;;;;;12.40;6.08;;;;;;;2.47;72.60;98621.95;1873919;76;22137;-67
2021/12/01 03:48:37;;;;;;;13.62;6.08;;;;;;;2.47;72.68;98627.20;1868144;74;22647;-67
2021/12/01 03:51:09;;;;;;;14.13;6.80;;;;;;;2.47;72.63;98626.37;1873940;76;22136;-68
2021/12/01 03:53:41;;;;;;;14.93;6.60;;;;;;;2.45;72.57;98635.69;1892738;76;22584;-66
2021/12/01 03:56:14;;;;;;;14.85;6.45;;;;;;;2.45;72.56;98634.87;1892678;76;22132;-66
2021/12/01 03:58:47;;;;;;;13.53;6.40;;;;;;;2.45;72.55;98642.25;1874040;76;22145;-66
2021/12/01 04:01:38;;;;;;;12.13;6.10;;;;;;;2.44;72.53;98647.12;1874016;76;22154;-65
2021/12/01 04:04:11;;;;;;;15.20;5.95;;;;;;;2.45;72.44;98647.48;1874027;76;22124;-65
2021/12/01 04:07:02;;;;;;;12.30;6.05;;;;;;;2.46;72.45;98662.73;1874010;76;22141;-67
2021/12/01 04:09:37;;;;;;;14.25;6.65;;;;;;;2.47;72.39;98673.55;1874043;76;22158;-67
2021/12/01 04:12:29;;;;;;;14.00;5.95;;;;;;;2.48;72.44;98683.88;1873950;76;22160;-65
2021/12/01 04:15:01;;;;;;;13.45;5.90;;;;;;;2.50;72.46;98683.28;1892797;76;22153;-67
2021/12/01 04:17:52;;;;;;;13.78;6.53;;;;;;;2.51;72.34;98684.11;1874009;76;22120;-68
2021/12/01 04:20:24;;;;;;;15.30;6.05;;;;;;;2.52;72.35;98695.76;1874137;76;22136;-68
2021/12/01 04:22:56;;;;;;;15.13;6.55;;;;;;;2.54;72.34;98696.92;1892835;76;22157;-66
2021/12/01 04:25:29;;;;;;;12.75;6.05;;;;;;;2.56;72.22;98701.08;1874033;76;22157;-68
2021/12/01 04:28:01;;;;;;;14.15;6.30;;;;;;;2.55;72.19;98705.98;1874042;76;22129;-68
2021/12/01 04:30:33;;;;;;;11.53;5.42;;;;;;;2.55;72.23;98707.30;1874032;76;22133;-68
2021/12/01 04:33:25;;;;;;;12.78;5.60;;;;;;;2.54;72.04;98716.12;1873998;76;22136;-66
2021/12/01 04:36:04;;;;;;;11.35;5.60;;;;;;;2.51;72.07;98724.25;1873091;76;22129;-67
2021/12/01 04:38:56;;;;;;;11.33;5.30;;;;;;;2.49;72.14;98724.88;1871264;76;22176;-67
2021/12/01 04:41:52;;;;;;;11.08;5.55;;;;;;;2.45;72.14;98731.84;1892797;76;22139;-67
2021/12/01 04:44:26;;;;;;;11.88;5.40;;;;;;;2.41;72.15;98732.59;1874035;76;22124;-68
2021/12/01 04:47:26;;;;;;;12.58;5.33;;;;;;;2.35;72.20;98736.21;1873952;76;22136;-67
2021/12/01 04:49:51;;;;;;;11.38;4.80;;;;;;;2.32;72.32;98741.74;1873910;76;22573;-68
2021/12/01 04:52:43;;;;;;;11.60;4.58;;;;;;;2.31;72.21;98750.09;1892806;76;22123;-66
2021/12/01 04:55:15;;;;;;;9.53;4.72;;;;;;;2.33;72.16;98744.22;1892716;76;22132;-67
2021/12/01 04:58:13;;;;;;;8.15;4.25;;;;;;;2.34;72.17;98747.66;1873113;76;22168;-67
2021/12/01 05:00:45;;;;;;;10.35;4.50;;;;;;;2.35;72.26;98763.24;1874015;76;22165;-67
2021/12/01 05:03:36;;;;;;;9.53;4.70;;;;;;;2.36;72.25;98764.10;1892796;76;22115;-68
2021/12/01 05:06:12;;;;;;;11.12;4.60;;;;;;;2.34;72.16;98772.08;1871319;76;22145;-67
2021/12/01 05:08:43;;;;;;;8.48;4.10;;;;;;;2.31;72.05;98781.53;1874034;76;22593;-67
2021/12/01 05:11:15;;;;;;;15.78;7.65;;;;;;;2.27;71.95;98778.34;1892631;76;22172;-66
2021/12/01 05:14:06;;;;;;;12.18;5.33;;;;;;;2.27;72.85;98795.86;1873868;76;22141;-51
2021/12/01 05:16:40;;;;;;;12.07;5.67;;;;;;;2.56;77.00;98805.94;1871221;76;22569;-51
2021/12/01 05:19:39;;;;;;;19.25;9.60;;;;;;;2.92;76.09;98808.08;1873029;76;22557;-51
2021/12/01 05:22:11;;;;;;;11.80;5.92;;;;;;;3.05;74.85;98817.31;1892614;76;22157;-62
2021/12/01 05:24:43;;;;;;;14.55;5.83;;;;;;;3.13;73.79;98817.13;1873922;76;22154;-62
2021/12/01 05:27:15;;;;;;;17.92;9.08;;;;;;;3.05;71.69;98821.25;1873971;76;22149;-63
2021/12/01 05:29:48;;;;;;;20.97;10.35;;;;;;;2.93;71.28;98822.36;1873902;76;22189;-61
2021/12/01 05:32:39;;;;;;;12.30;4.92;;;;;;;2.82;71.20;98825.09;1871197;76;22161;-64
2021/12/01 05:35:12;;;;;;;13.95;6.08;;;;;;;2.74;70.52;98826.27;1873911;76;22140;-65
2021/12/01 05:37:44;;;;;;;8.43;4.08;;;;;;;2.65;69.99;98829.70;1874017;76;22169;-65
2021/12/01 05:40:16;;;;;;;9.13;4.37;;;;;;;2.56;69.16;98830.84;1873916;76;22153;-65
2021/12/01 05:42:48;;;;;;;7.47;3.55;;;;;;;2.49;68.82;98838.05;1892788;76;22181;-65
2021/12/01 05:45:20;;;;;;;13.22;5.28;;;;;;;2.43;68.21;98838.59;1892812;76;22149;-65
2021/12/01 05:47:53;;;;;;;20.62;9.25;;;;;;;2.37;68.21;98849.13;1892678;76;22560;-66
2021/12/01 05:50:25;;;;;;;21.75;9.20;;;;;;;2.35;68.12;98855.45;1873851;76;22165;-64
2021/12/01 05:52:57;;;;;;;25.23;11.45;;;;;;;2.30;67.92;98858.46;1873771;76;22182;-66
2021/12/01 05:55:29;;;;;;;33.42;16.77;;;;;;;2.23;67.67;98867.83;1892484;76;22640;-65
2021/12/01 05:58:02;;;;;;;22.15;10.25;;;;;;;2.16;67.87;98877.15;1873105;76;22149;-67
2021/12/01 06:00:34;;;;;;;17.15;6.53;;;;;;;2.15;68.07;98874.19;1873346;76;22784;-65
2021/12/01 06:03:07;;;;;;;18.37;7.92;;;;;;;2.17;67.83;98876.22;1859056;76;22203;-65
2021/12/01 06:06:00;;;;;;;26.52;11.35;;;;;;;2.17;67.84;98877.52;1866172;76;23234;-65
2021/12/01 06:08:35;;;;;;;12.15;5.50;;;;;;;2.17;67.64;98882.28;1861803;76;22234;-64
2021/12/01 06:11:09;;;;;;;9.23;4.03;;;;;;;2.16;67.34;98886.32;1885883;76;22194;-65
2021/12/01 06:14:04;;;;;;;13.38;4.70;;;;;;;2.13;67.19;98893.16;1872533;76;22208;-65
2021/12/01 06:16:37;;;;;;;5.15;3.60;;;;;;;2.11;67.27;98889.81;1872946;76;22608;-65
2021/12/01 06:19:11;;;;;;;7.20;3.90;;;;;;;2.10;66.82;98899.47;1873245;76;22205;-63
2021/12/01 06:21:43;;;;;;;8.45;4.40;;;;;;;2.09;66.29;98896.98;1873179;76;22598;-66
2021/12/01 06:24:37;;;;;;;9.20;4.60;;;;;;;2.04;66.21;98901.30;1866395;76;22187;-64
2021/12/01 06:27:11;;;;;;;16.40;7.78;;;;;;;1.98;66.32;98901.83;1865847;76;22171;-62
2021/12/01 06:30:05;;;;;;;9.53;4.28;;;;;;;1.99;66.67;98910.85;1872759;76;22200;-62
2021/12/01 06:32:37;;;;;;;9.08;4.50;;;;;;;2.01;66.81;98914.16;1892101;76;22244;-62
2021/12/01 06:35:10;;;;;;;9.75;4.67;;;;;;;2.04;67.20;98917.84;1859933;76;22654;-58
2021/12/01 06:37:43;;;;;;;8.60;4.65;;;;;;;2.11;67.53;98922.08;1872953;76;22652;-63
2021/12/01 06:40:15;;;;;;;7.62;4.30;;;;;;;2.16;67.51;98928.23;1872003;76;22221;-62
2021/12/01 06:42:54;;;;;;;7.30;3.42;;;;;;;2.16;67.48;98933.00;1872353;76;22156;-60
2021/12/01 06:45:32;;;;;;;5.75;3.42;;;;;;;2.20;66.91;98933.09;1872422;76;22156;-62
2021/12/01 06:48:05;;;;;;;5.22;3.30;;;;;;;2.17;64.87;98929.92;1873010;76;22200;-62
2021/12/01 06:50:56;;;;;;;5.60;2.95;;;;;;;2.14;64.54;98925.76;1872564;76;22594;-60
2021/12/01 06:53:30;;;;;;;35.15;17.67;;;;;;;2.16;64.01;98929.06;1873030;76;22529;-62
2021/12/01 06:56:03;;;;;;;6.55;3.92;;;;;;;2.21;63.54;98940.47;1873091;76;22212;-64
2021/12/01 06:58:55;;;;;;;4.33;2.83;;;;;;;2.24;63.36;98946.30;1891798;76;22199;-61
2021/12/01 07:01:28;;;;;;;6.72;3.27;;;;;;;2.27;63.21;98952.59;1872730;76;22563;-62
2021/12/01 07:04:00;;;;;;;6.80;3.12;;;;;;;2.28;62.72;98958.18;1891872;76;22204;-60
2021/12/01 07:06:32;;;;;;;6.78;3.58;;;;;;;2.28;62.53;98960.80;1865579;76;22318;-60
2021/12/01 07:09:11;;;;;;;12.18;5.55;;;;;;;2.31;62.46;98959.73;1872745;76;22208;-64
2021/12/01 07:11:46;;;;;;;10.25;4.90;;;;;;;2.35;62.82;98966.83;1891896;76;22203;-65
2021/12/01 07:14:18;;;;;;;8.08;3.70;;;;;;;2.38;62.88;98960.03;1872972;76;22214;-63
2021/12/01 07:17:09;;;;;;;8.75;3.70;;;;;;;2.41;62.42;98960.61;1873010;76;22294;-62
2021/12/01 07:19:42;;;;;;;8.10;3.55;;;;;;;2.43;62.09;98965.22;1873184;76;22168;-63
2021/12/01 07:22:14;;;;;;;8.63;3.72;;;;;;;2.44;61.16;98974.74;1872943;76;22609;-62
2021/12/01 07:24:47;;;;;;;9.75;4.97;;;;;;;2.45;61.22;98975.60;1872928;76;22204;-66
2021/12/01 07:27:19;;;;;;;8.95;4.55;;;;;;;2.48;61.76;98982.70;1873104;76;22149;-66
2021/12/01 07:29:52;;;;;;;5.85;3.50;;;;;;;2.47;61.49;98988.91;1873092;76;22208;-62
2021/12/01 07:32:24;;;;;;;7.72;4.58;;;;;;;2.43;60.98;98997.16;1873493;76;22685;-60
2021/12/01 07:34:57;;;;;;;13.90;6.72;;;;;;;2.37;60.92;99001.13;1873407;76;22173;-63
2021/12/01 07:37:29;;;;;;;13.25;8.08;;;;;;;2.34;60.66;99005.79;1873500;76;22165;-66
2021/12/01 07:40:01;;;;;;;7.17;4.15;;;;;;;2.27;60.65;99010.25;1873207;76;22204;-63
2021/12/01 07:42:33;;;;;;;7.70;4.55;;;;;;;2.27;60.70;99013.34;1873127;76;22669;-67
2021/12/01 07:45:07;;;;;;;10.93;4.58;;;;;;;2.24;60.12;99010.97;1870515;76;22621;-62
2021/12/01 07:48:00;;;;;;;19.45;9.25;;;;;;;2.22;60.06;99011.11;1870089;76;22192;-62
2021/12/01 07:50:32;;;;;;;13.22;6.85;;;;;;;2.21;60.52;99005.52;1873400;76;22194;-66
2021/12/01 07:53:04;;;;;;;6.42;3.62;;;;;;;2.24;60.88;99007.87;1873269;76;22217;-65
2021/12/01 07:55:38;;;;;;;5.97;3.37;;;;;;;2.28;60.81;99004.03;1873059;76;22200;-63
2021/12/01 07:58:11;;;;;;;7.05;3.00;;;;;;;2.29;60.61;99008.31;1891867;76;22589;-63
2021/12/01 08:00:43;;;;;;;6.58;3.92;;;;;;;2.33;60.93;99007.59;1891620;76;22160;-65
2021/12/01 08:03:35;;;;;;;6.87;3.30;;;;;;;2.43;60.99;99012.41;1873433;76;22160;-67
2021/12/01 08:06:08;;;;;;;5.08;2.80;;;;;;;2.46;61.01;99011.33;1889619;76;22195;-65
2021/12/01 08:08:40;;;;;;;11.63;6.33;;;;;;;2.51;61.10;99012.59;1870377;76;22156;-69
2021/12/01 08:11:15;;;;;;;12.73;5.92;;;;;;;2.61;60.79;99010.52;1873008;76;22180;-70
2021/12/01 08:13:48;;;;;;;11.07;3.80;;;;;;;2.64;60.39;99012.89;1870232;76;27936;-63
2021/12/01 08:16:39;;;;;;;15.08;5.08;;;;;;;2.78;59.85;99013.38;1873115;76;22224;-66
2021/12/01 08:19:12;;;;;;;5.45;3.33;;;;;;;2.79;60.04;99018.96;1892013;76;22180;-63
2021/12/01 08:21:47;;;;;;;7.70;4.47;;;;;;;2.75;59.89;99019.35;1861928;76;22232;-62
2021/12/01 08:24:19;;;;;;;6.83;4.50;;;;;;;2.71;60.07;99017.46;1891961;76;22207;-61
2021/12/01 08:26:51;;;;;;;9.15;4.15;;;;;;;2.70;60.31;99021.54;1872965;76;22622;-64
2021/12/01 08:29:24;;;;;;;8.13;3.90;;;;;;;2.70;60.51;99018.43;1873053;76;22204;-61
2021/12/01 08:31:56;;;;;;;8.88;4.25;;;;;;;2.72;60.65;99012.56;1870439;76;22653;-64
2021/12/01 08:34:30;;;;;;;7.60;3.30;;;;;;;2.74;60.51;99015.91;1873101;76;22172;-61
2021/12/01 08:37:07;;;;;;;10.23;3.87;;;;;;;2.72;60.66;99019.12;1870418;76;22182;-66
2021/12/01 08:39:37;;;;;;;24.45;11.93;;;;;;;2.72;60.92;99020.91;1865510;76;22618;-63
2021/12/01 08:42:10;;;;;;;19.77;14.55;;;;;;;2.76;61.26;99024.94;1872905;76;22141;-60
2021/12/01 08:45:02;;;;;;;6.08;3.58;;;;;;;2.77;61.25;99021.34;1872872;76;22204;-63
2021/12/01 08:47:34;;;;;;;9.30;3.75;;;;;;;2.75;61.16;99022.80;1872757;76;22605;-68
2021/12/01 08:50:08;;;;;;;8.58;3.55;;;;;;;2.77;61.38;99026.11;1866975;76;22217;-64
2021/12/01 08:53:00;;;;;;;6.92;3.72;;;;;;;2.81;61.37;99020.13;1873124;76;22225;-63
2021/12/01 08:55:32;;;;;;;5.75;2.98;;;;;;;2.78;61.38;99021.72;1891755;76;22191;-61
2021/12/01 08:58:04;;;;;;;8.83;3.92;;;;;;;2.79;61.68;99022.89;1872754;76;22221;-62
2021/12/01 09:00:38;;;;;;;8.45;3.60;;;;;;;2.84;61.59;99034.79;1868279;76;23144;-61
2021/12/01 09:03:13;;;;;;;4.55;3.17;;;;;;;2.84;61.79;99025.61;1889381;76;22184;-68
2021/12/01 09:05:46;;;;;;;10.43;3.85;;;;;;;2.89;62.04;99021.62;1861101;76;22227;-62
2021/12/01 09:08:20;;;;;;;8.35;3.90;;;;;;;2.92;62.04;99021.86;1873162;76;22204;-63
2021/12/01 09:10:56;;;;;;;7.95;3.77;;;;;;;2.92;62.11;99013.99;1873282;76;22174;-63
2021/12/01 09:13:37;;;;;;;9.00;4.60;;;;;;;2.95;62.29;99014.53;1856564;76;27896;-64
2021/12/01 09:16:09;;;;;;;8.70;4.37;;;;;;;3.08;62.11;99011.70;1872757;76;22590;-62
2021/12/01 09:18:42;;;;;;;8.50;4.37;;;;;;;3.17;62.27;99008.27;1872917;76;22613;-64
2021/12/01 09:21:18;;;;;;;10.70;4.87;;;;;;;3.17;61.70;99016.15;1873081;76;22154;-65
2021/12/01 09:24:09;;;;;;;6.75;3.80;;;;;;;3.12;61.84;99013.58;1849576;76;22655;-61
2021/12/01 09:26:42;;;;;;;13.85;7.10;;;;;;;3.06;61.70;99015.77;1869880;76;22180;-66
2021/12/01 09:29:15;;;;;;;10.08;6.65;;;;;;;3.01;61.79;99019.28;1871034;76;22180;-70
2021/12/01 09:31:56;;;;;;;23.35;17.70;;;;;;;3.00;62.16;99013.66;1872049;76;22192;-63
2021/12/01 09:34:51;;;;;;;11.18;6.12;;;;;;;3.01;62.38;99023.67;1891843;76;22203;-69
2021/12/01 09:37:23;;;;;;;11.18;6.42;;;;;;;3.03;62.61;99015.20;1873299;76;22153;-67
2021/12/01 09:39:55;;;;;;;9.63;5.08;;;;;;;3.07;62.77;99010.87;1873088;76;22196;-69
2021/12/01 09:42:27;;;;;;;10.72;6.15;;;;;;;3.11;62.68;99018.00;1891879;76;22159;-68
2021/12/01 09:45:00;;;;;;;12.13;5.45;;;;;;;3.14;62.82;99013.78;1870007;76;22183;-65
2021/12/01 09:47:51;;;;;;;10.93;5.65;;;;;;;3.21;63.16;99011.47;1873242;76;22156;-66
2021/12/01 09:50:23;;;;;;;12.75;6.17;;;;;;;3.25;62.92;99017.63;1891936;76;22774;-68
2021/12/01 09:53:15;;;;;;;12.45;6.03;;;;;;;3.30;62.91;99011.50;1892047;76;22152;-65
2021/12/01 09:55:47;;;;;;;16.00;6.50;;;;;;;3.36;62.94;99014.06;1873062;76;22743;-69
2021/12/01 09:58:23;;;;;;;13.15;6.15;;;;;;;3.42;62.91;99019.25;1873229;76;22161;-67
2021/12/01 10:01:00;;;;;;;15.60;7.17;;;;;;;3.44;62.61;99018.66;1857298;76;27927;-64
2021/12/01 10:03:33;;;;;;;15.68;6.92;;;;;;;3.55;62.56;99020.66;1892590;76;22152;-68
2021/12/01 10:06:16;;;;;;;14.90;6.60;;;;;;;3.61;62.47;99021.09;1892413;76;22626;-66
2021/12/01 10:09:08;;;;;;;13.70;7.08;;;;;;;3.66;62.36;99009.69;1873690;76;22161;-70
2021/12/01 10:12:06;;;;;;;17.15;7.67;;;;;;;3.67;62.20;99013.97;1873466;76;22152;-72
2021/12/01 10:14:40;;;;;;;15.30;7.28;;;;;;;3.69;62.29;99016.82;1892244;76;22610;-65
2021/12/01 10:17:13;;;;;;;18.12;8.10;;;;;;;3.69;62.31;99012.05;1892533;76;22168;-67
2021/12/01 10:19:45;;;;;;;17.07;7.80;;;;;;;3.70;62.41;99009.77;1873721;76;22157;-67
2021/12/01 10:22:17;;;;;;;17.32;8.08;;;;;;;3.71;62.35;99014.88;1873569;76;22190;-67
2021/12/01 10:24:50;;;;;;;17.85;7.62;;;;;;;3.72;62.22;99021.81;1873785;76;22200;-71
2021/12/01 10:27:42;;;;;;;18.32;7.97;;;;;;;3.76;61.53;99019.72;1873617;76;22185;-68
2021/12/01 10:30:37;;;;;;;14.45;7.90;;;;;;;3.75;61.63;99024.14;1873638;76;22645;-67
2021/12/01 10:33:16;;;;;;;15.03;7.10;;;;;;;3.81;61.50;99017.51;1873541;76;22316;-67
2021/12/01 10:35:48;;;;;;;17.48;9.85;;;;;;;3.87;61.55;99024.86;1870694;76;22225;-70
2021/12/01 10:38:30;;;;;;;16.07;7.80;;;;;;;3.95;61.11;99025.02;1892415;76;22189;-66
2021/12/01 10:41:13;;;;;;;14.28;7.15;;;;;;;3.98;60.70;99023.89;1873552;76;22166;-63
2021/12/01 10:43:47;;;;;;;14.65;6.62;;;;;;;3.99;60.49;99019.80;1873547;76;22204;-68
2021/12/01 10:46:50;;;;;;;16.87;7.70;;;;;;;3.95;59.50;99019.76;1892295;76;22197;-66
2021/12/01 10:49:43;;;;;;;13.65;6.53;;;;;;;3.90;59.90;99023.25;1873528;76;22152;-65
2021/12/01 10:52:36;;;;;;;14.20;6.85;;;;;;;3.87;60.31;99017.47;1873647;76;22178;-65
2021/12/01 10:55:19;;;;;;;13.90;7.05;;;;;;;3.90;60.70;99022.43;1857098;76;28387;-65
2021/12/01 10:58:10;;;;;;;13.25;6.50;;;;;;;4.01;60.12;99015.26;1873567;76;22156;-65
2021/12/01 11:00:50;;;;;;;13.18;6.15;;;;;;;3.99;59.50;99013.23;1873193;76;22192;-65
2021/12/01 11:03:25;;;;;;;19.02;8.53;;;;;;;3.95;59.95;99012.33;1873103;76;23292;-66
2021/12/01 11:06:13;;;;;;;12.40;6.20;;;;;;;3.93;60.29;99011.16;1870740;76;22192;-59
2021/12/01 11:08:48;;;;;;;21.42;9.93;;;;;;;3.95;59.79;99008.39;1873251;76;22185;-62
2021/12/01 11:11:20;;;;;;;17.17;7.50;;;;;;;3.96;60.05;99011.39;1873440;76;22212;-62
2021/12/01 11:13:52;;;;;;;15.00;7.50;;;;;;;3.95;60.05;99005.30;1872936;76;22164;-63
2021/12/01 11:16:25;;;;;;;17.65;12.10;;;;;;;3.96;60.24;99007.45;1891851;76;22168;-61
2021/12/01 11:19:17;;;;;;;13.32;6.65;;;;;;;3.96;60.50;99002.19;1872765;76;22160;-60
2021/12/01 11:22:28;;;;;;;13.18;6.53;;;;;;;3.99;60.31;99003.21;1878889;76;23098;-62
2021/12/01 11:25:20;;;;;;;15.00;7.00;;;;;;;3.96;59.58;99000.39;1884422;76;22323;-65
2021/12/01 11:27:53;;;;;;;17.32;7.65;;;;;;;3.93;59.84;98991.46;1873030;76;22206;-63
2021/12/01 11:30:26;;;;;;;13.43;7.12;;;;;;;3.93;60.13;98995.89;1872434;76;22549;-64
2021/12/01 11:33:18;;;;;;;16.35;8.63;;;;;;;3.96;60.68;98999.08;1872903;76;22204;-63
2021/12/01 11:36:20;;;;;;;13.80;7.03;;;;;;;4.00;60.90;98994.35;1848788;76;22222;-64
2021/12/01 11:38:56;;;;;;;14.03;7.90;;;;;;;4.05;60.72;98996.94;1873153;76;22160;-61
2021/12/01 11:41:28;;;;;;;17.80;8.55;;;;;;;4.06;60.45;99002.53;1857099;76;27907;-67
2021/12/01 11:44:01;;;;;;;16.85;7.78;;;;;;;4.14;59.81;99000.98;1873335;76;22686;-64
2021/12/01 11:46:33;;;;;;;20.82;8.75;;;;;;;4.19;59.14;99004.02;1873240;76;22625;-64
2021/12/01 11:49:12;;;;;;;13.50;6.40;;;;;;;4.19;58.81;98994.36;1872914;76;22165;-65
2021/12/01 11:51:59;;;;;;;13.25;5.87;;;;;;;4.20;58.73;99005.70;1873347;76;22165;-61
2021/12/01 11:54:33;;;;;;;13.72;6.35;;;;;;;4.21;58.90;99000.30;1872599;76;22242;-63
2021/12/01 11:57:27;;;;;;;15.03;7.37;;;;;;;4.26;58.80;98997.25;1872883;76;22200;-61
2021/12/01 11:59:59;;;;;;;17.82;7.85;;;;;;;4.31;58.83;98991.08;1881532;76;22208;-62
2021/12/01 12:02:31;;;;;;;13.80;6.72;;;;;;;4.30;58.63;98998.14;1891762;76;22215;-62
2021/12/01 12:05:08;;;;;;;21.10;10.20;;;;;;;4.27;58.63;98994.96;1872839;76;22198;-62
2021/12/01 12:07:44;;;;;;;14.90;6.90;;;;;;;4.25;58.64;98989.03;1872883;76;22185;-64
2021/12/01 12:10:18;;;;;;;17.20;7.80;;;;;;;4.22;58.69;98980.92;1891777;76;22584;-67
2021/12/01 12:13:29;;;;;;;16.25;6.40;;;;;;;4.25;58.82;98984.59;1865526;75;22189;-67
2021/12/01 12:16:02;;;;;;;18.02;7.35;;;;;;;4.27;58.74;98988.39;1873134;76;22153;-65
2021/12/01 12:18:53;;;;;;;16.73;7.87;;;;;;;4.24;58.33;98983.43;1873107;76;22219;-69
2021/12/01 12:21:40;;;;;;;14.15;6.62;;;;;;;4.18;58.41;98978.23;1869676;76;22176;-61
2021/12/01 12:26:58;;;;;;;16.80;8.05;;;;;;;4.04;58.00;98966.83;1872984;76;22186;-63
2021/12/01 12:29:28;;;;;;;17.62;7.50;;;;;;;3.95;57.72;98965.89;1873252;76;22204;-61
2021/12/01 12:32:21;;;;;;;13.75;6.90;;;;;;;3.87;57.61;98966.23;1873187;76;22165;-61